Time;durP1;ratioP1;P1;durP2;ratioP2;P2;SDS_P1;SDS_P2;PMS_P1;PMS_P2;Temp;Humidity;BMP_temperature;BMP_pressure;BME280_temperature;BME280_humidity;BME280_pressure;Samples;Min_cycle;Max_cycle;Signal;HPM_P1;HPM_P2
2023/01/08 00:02:18;;;;;;;4.00;2.90;;;9.50;99.90;;;;;;5005619;28;20049;-59
2023/01/08 00:04:44;;;;;;;6.10;2.35;;;9.70;99.90;;;;;;5004656;28;20049;-60
2023/01/08 00:07:09;;;;;;;5.90;2.75;;;9.50;99.90;;;;;;5005404;28;20485;-59
2023/01/08 00:09:35;;;;;;;3.42;2.10;;;9.50;99.90;;;;;;5005816;28;20046;-60
2023/01/08 00:12:01;;;;;;;3.85;2.17;;;9.60;99.90;;;;;;5005448;28;20529;-59
2023/01/08 00:14:26;;;;;;;3.10;1.95;;;9.50;99.90;;;;;;5005916;28;20359;-59
2023/01/08 00:16:52;;;;;;;3.58;2.50;;;9.70;99.90;;;;;;5004502;28;20541;-59
2023/01/08 00:19:19;;;;;;;5.05;2.47;;;9.60;99.90;;;;;;5005619;28;20100;-59
2023/01/08 00:21:44;;;;;;;3.97;2.42;;;9.60;99.90;;;;;;5015993;28;20050;-59
2023/01/08 00:24:10;;;;;;;4.22;2.90;;;9.80;99.90;;;;;;5024598;28;20477;-60
2023/01/08 00:26:36;;;;;;;3.85;2.55;;;9.60;99.90;;;;;;5024872;28;20060;-59
2023/01/08 00:29:01;;;;;;;4.40;2.50;;;9.60;99.90;;;;;;5023839;28;20053;-59
2023/01/08 00:31:27;;;;;;;3.00;1.70;;;9.70;99.90;;;;;;5025185;28;20540;-59
2023/01/08 00:33:53;;;;;;;4.18;2.35;;;9.50;99.90;;;;;;5024593;28;20041;-59
2023/01/08 00:36:18;;;;;;;4.10;2.80;;;9.60;99.90;;;;;;5025439;28;20080;-59
2023/01/08 00:38:45;;;;;;;3.90;2.47;;;9.50;99.90;;;;;;5022872;28;20489;-59
2023/01/08 00:41:13;;;;;;;5.03;3.25;;;9.50;99.90;;;;;;5025092;28;20045;-59
2023/01/08 00:43:39;;;;;;;3.83;2.25;;;9.50;99.90;;;;;;5024432;28;20227;-59
2023/01/08 00:46:05;;;;;;;4.05;2.90;;;9.50;99.90;;;;;;5024598;28;20136;-59
2023/01/08 00:48:32;;;;;;;4.80;2.47;;;9.60;99.90;;;;;;5024121;28;20562;-59
2023/01/08 00:51:02;;;;;;;5.10;2.90;;;9.50;99.90;;;;;;5025300;28;20045;-60
2023/01/08 00:53:28;;;;;;;4.80;2.65;;;9.60;99.90;;;;;;5023245;28;20038;-59
2023/01/08 00:56:06;;;;;;;4.55;3.00;;;9.70;99.90;;;;;;5025324;28;20053;-59
2023/01/08 00:58:32;;;;;;;3.63;2.88;;;9.50;99.90;;;;;;5024610;28;20443;-59
2023/01/08 01:00:58;;;;;;;4.38;2.75;;;9.40;99.90;;;;;;5024030;28;20045;-59
2023/01/08 01:03:24;;;;;;;3.67;2.25;;;9.60;99.90;;;;;;5024499;28;20037;-59
2023/01/08 01:05:49;;;;;;;4.45;2.65;;;9.60;99.90;;;;;;5024596;28;20415;-59
2023/01/08 01:08:15;;;;;;;4.97;3.03;;;9.60;99.90;;;;;;5024220;28;20140;-58
2023/01/08 01:10:41;;;;;;;3.80;2.85;;;9.40;99.90;;;;;;5024756;28;20038;-61
2023/01/08 01:13:07;;;;;;;5.32;2.42;;;9.40;99.90;;;;;;5007300;28;20050;-59
2023/01/08 01:15:34;;;;;;;4.95;3.03;;;9.50;99.90;;;;;;5023456;28;20045;-59
2023/01/08 01:17:59;;;;;;;7.03;2.80;;;9.50;99.90;;;;;;5023723;28;20420;-59
2023/01/08 01:20:25;;;;;;;3.55;2.38;;;9.30;99.90;;;;;;5020927;28;20037;-58
2023/01/08 01:22:51;;;;;;;4.70;3.13;;;9.10;99.90;;;;;;5011834;28;20175;-60
2023/01/08 01:25:17;;;;;;;5.10;3.50;;;9.20;99.90;;;;;;5004138;28;20794;-60
2023/01/08 01:27:42;;;;;;;4.70;2.90;;;9.20;99.90;;;;;;5004317;28;20033;-61
2023/01/08 01:30:08;;;;;;;5.07;2.97;;;9.50;99.90;;;;;;5005334;28;20057;-59
2023/01/08 01:32:34;;;;;;;4.45;2.80;;;9.20;99.90;;;;;;5003994;28;20046;-60
2023/01/08 01:35:00;;;;;;;4.32;2.80;;;9.40;99.90;;;;;;5003788;28;20231;-59
2023/01/08 01:37:26;;;;;;;2.95;2.10;;;9.50;99.90;;;;;;5005418;28;20140;-59
2023/01/08 01:39:52;;;;;;;6.00;2.63;;;9.60;99.90;;;;;;5005261;28;20052;-60
2023/01/08 01:45:24;;;;;;;4.20;3.38;;;9.30;99.90;;;;;;5005253;28;20058;-60
2023/01/08 01:48:12;;;;;;;4.30;3.28;;;9.60;99.90;;;;;;5003768;28;20054;-60
2023/01/08 01:50:48;;;;;;;3.75;3.15;;;9.40;99.90;;;;;;5004812;28;20048;-59
2023/01/08 01:53:20;;;;;;;5.28;3.22;;;9.20;99.90;;;;;;5005041;28;20054;-60
2023/01/08 01:55:47;;;;;;;5.40;3.53;;;9.30;99.90;;;;;;5005126;28;20045;-59
2023/01/08 01:58:22;;;;;;;4.95;1.75;;;9.20;99.90;;;;;;5004182;28;20050;-60
2023/01/08 02:00:49;;;;;;;3.80;2.42;;;9.50;99.90;;;;;;5004239;28;20045;-59
2023/01/08 02:03:15;;;;;;;3.45;2.08;;;9.40;99.90;;;;;;5003821;28;20050;-60
2023/01/08 02:05:44;;;;;;;4.10;2.38;;;9.20;99.90;;;;;;5003725;28;20064;-59
2023/01/08 02:08:39;;;;;;;4.10;2.28;;;9.50;99.90;;;;;;5004665;28;20089;-59
2023/01/08 02:11:20;;;;;;;3.88;2.63;;;9.20;99.90;;;;;;5018950;28;20050;-60
2023/01/08 02:13:57;;;;;;;3.35;1.98;;;9.20;99.90;;;;;;5023965;28;20122;-60
2023/01/08 02:16:40;;;;;;;4.97;2.00;;;9.60;99.90;;;;;;5023429;28;20357;-60
2023/01/08 02:19:14;;;;;;;6.15;2.22;;;9.30;99.90;;;;;;5023024;28;20396;-59
2023/01/08 02:21:54;;;;;;;4.35;2.15;;;9.40;99.90;;;;;;5016956;28;20046;-60
2023/01/08 02:24:28;;;;;;;5.40;2.00;;;9.50;99.90;;;;;;5004101;28;20121;-60
2023/01/08 02:26:56;;;;;;;4.45;1.48;;;9.40;99.90;;;;;;5003803;28;20050;-60
2023/01/08 02:29:24;;;;;;;4.60;1.50;;;9.30;99.90;;;;;;5004249;28;20061;-59
2023/01/08 02:31:51;;;;;;;5.25;1.50;;;9.40;99.90;;;;;;5003714;28;20057;-60
2023/01/08 02:34:16;;;;;;;2.78;1.25;;;9.40;99.90;;;;;;5003404;28;20049;-60
2023/01/08 02:37:01;;;;;;;7.43;1.67;;;9.20;99.90;;;;;;5002147;28;20052;-59
2023/01/08 02:39:41;;;;;;;4.70;1.50;;;9.20;99.90;;;;;;5003434;28;20068;-60
2023/01/08 02:42:44;;;;;;;4.13;1.08;;;9.20;99.90;;;;;;5003337;28;20404;-59
2023/01/08 02:45:42;;;;;;;7.57;1.35;;;9.20;99.90;;;;;;5002872;28;20044;-60
2023/01/08 02:48:27;;;;;;;8.80;1.88;;;9.10;99.90;;;;;;5002489;28;20046;-61
2023/01/08 02:50:59;;;;;;;;;;;8.90;99.90;;;;;;5003772;28;20038;-60
2023/01/08 02:53:32;;;;;;;6.63;1.50;;;9.00;99.90;;;;;;5003395;28;20398;-59
2023/01/08 02:56:02;;;;;;;5.95;1.33;;;8.90;99.90;;;;;;5003180;28;20054;-59
2023/01/08 02:58:32;;;;;;;7.00;1.60;;;8.80;99.90;;;;;;5003272;28;20049;-59
2023/01/08 03:01:01;;;;;;;4.15;1.23;;;8.80;99.90;;;;;;5003366;28;20046;-59
2023/01/08 03:03:28;;;;;;;6.20;1.88;;;8.70;99.90;;;;;;5005624;28;20080;-59
2023/01/08 03:06:02;;;;;;;9.13;2.10;;;8.70;99.90;;;;;;5022645;28;20084;-59
2023/01/08 03:08:28;;;;;;;6.60;1.50;;;8.70;99.90;;;;;;5005217;28;20064;-60
2023/01/08 03:11:15;;;;;;;5.18;1.38;;;8.60;99.90;;;;;;5007387;28;20408;-60
2023/01/08 03:13:44;;;;;;;9.20;1.60;;;8.70;99.90;;;;;;5005899;28;20065;-59
2023/01/08 03:16:16;;;;;;;4.18;0.80;;;8.60;99.90;;;;;;5007319;28;20705;-59
2023/01/08 03:18:48;;;;;;;9.50;1.70;;;8.50;99.90;;;;;;5006324;28;20056;-59
2023/01/08 03:21:16;;;;;;;7.00;1.65;;;8.60;99.90;;;;;;5013312;28;20049;-59
2023/01/08 03:23:45;;;;;;;12.07;2.15;;;8.40;99.90;;;;;;5010661;28;20779;-60
2023/01/08 03:26:14;;;;;;;10.43;1.90;;;8.40;99.90;;;;;;5007189;28;20609;-59
2023/01/08 03:28:46;;;;;;;5.82;1.58;;;8.50;99.90;;;;;;5006326;28;20038;-59
2023/01/08 03:31:15;;;;;;;7.30;1.80;;;8.30;99.90;;;;;;5006587;28;20069;-59
2023/01/08 03:33:42;;;;;;;4.90;1.48;;;8.40;99.90;;;;;;5006103;28;20038;-59
2023/01/08 03:36:13;;;;;;;8.23;1.58;;;8.40;99.90;;;;;;5005865;28;20120;-59
2023/01/08 03:38:44;;;;;;;10.32;2.00;;;8.30;99.90;;;;;;5006526;28;20457;-59
2023/01/08 03:41:13;;;;;;;10.20;1.88;;;8.20;99.90;;;;;;5006299;28;20049;-59
2023/01/08 03:43:39;;;;;;;7.90;2.20;;;8.20;99.90;;;;;;5005850;28;20053;-60
2023/01/08 03:46:12;;;;;;;8.30;1.80;;;8.30;99.90;;;;;;5006914;28;20042;-59
2023/01/08 03:48:39;;;;;;;8.82;1.83;;;8.40;99.90;;;;;;5005739;28;20658;-59
2023/01/08 03:51:08;;;;;;;8.77;1.73;;;8.30;99.90;;;;;;5005775;28;20052;-59
2023/01/08 03:53:34;;;;;;;7.45;1.88;;;8.30;99.90;;;;;;5006587;28;20080;-59
2023/01/08 03:56:00;;;;;;;10.60;2.50;;;8.30;99.90;;;;;;5006684;28;20477;-58
2023/01/08 03:58:25;;;;;;;4.40;1.25;;;8.20;99.90;;;;;;5005758;28;20034;-59
2023/01/08 04:00:51;;;;;;;7.20;1.83;;;8.30;99.90;;;;;;5006169;28;20050;-59
2023/01/08 04:03:17;;;;;;;5.50;1.77;;;8.20;99.90;;;;;;5006161;28;20111;-59
2023/01/08 04:05:43;;;;;;;9.82;1.67;;;8.20;99.90;;;;;;5006146;28;20072;-59
2023/01/08 04:08:08;;;;;;;5.93;1.90;;;8.50;99.90;;;;;;5006423;28;20052;-60
2023/01/08 04:10:34;;;;;;;10.25;2.17;;;8.30;99.90;;;;;;5006024;28;20042;-59
2023/01/08 04:13:00;;;;;;;4.90;1.60;;;8.20;99.90;;;;;;5005163;28;20050;-59
2023/01/08 04:15:25;;;;;;;4.95;1.75;;;8.10;99.90;;;;;;5005676;28;20489;-59
2023/01/08 04:17:52;;;;;;;5.38;1.73;;;8.40;99.90;;;;;;5004495;28;20050;-60
2023/01/08 04:20:18;;;;;;;4.88;1.50;;;8.40;99.90;;;;;;5008699;28;20092;-59
2023/01/08 04:22:44;;;;;;;5.05;2.10;;;8.40;99.90;;;;;;5014872;28;20050;-60
2023/01/08 04:25:09;;;;;;;5.85;2.28;;;8.00;99.90;;;;;;5006320;28;20129;-59
2023/01/08 04:27:35;;;;;;;4.57;2.05;;;8.40;99.90;;;;;;5006042;28;20107;-59
2023/01/08 04:30:01;;;;;;;3.80;2.20;;;8.10;99.90;;;;;;5006109;28;20038;-60
2023/01/08 04:32:26;;;;;;;6.53;3.20;;;8.50;99.90;;;;;;5004558;28;20049;-59
2023/01/08 04:34:52;;;;;;;6.78;3.03;;;8.60;99.90;;;;;;5006132;28;20046;-59
2023/01/08 04:37:18;;;;;;;5.47;2.50;;;8.30;99.90;;;;;;5006092;28;20124;-59
2023/01/08 04:39:43;;;;;;;5.28;2.47;;;8.60;99.90;;;;;;5005743;28;20033;-60
2023/01/08 04:42:09;;;;;;;3.75;1.83;;;8.30;99.90;;;;;;5005482;28;20077;-59
2023/01/08 04:44:35;;;;;;;6.38;2.85;;;8.50;99.90;;;;;;5005951;28;20049;-59
2023/01/08 04:47:00;;;;;;;6.45;2.58;;;8.80;99.90;;;;;;5006101;28;20033;-59
2023/01/08 04:49:26;;;;;;;4.38;2.03;;;8.50;99.90;;;;;;5004289;28;20060;-59
2023/01/08 04:51:52;;;;;;;4.38;2.05;;;8.80;99.90;;;;;;5005732;28;20125;-59
2023/01/08 04:54:17;;;;;;;3.13;1.83;;;8.80;99.90;;;;;;5005780;28;20128;-59
2023/01/08 04:56:43;;;;;;;4.25;2.05;;;8.70;99.90;;;;;;5005634;28;20946;-60
2023/01/08 04:59:08;;;;;;;4.05;2.20;;;8.80;99.90;;;;;;5003732;28;20707;-59
2023/01/08 05:01:34;;;;;;;4.45;2.60;;;8.70;99.90;;;;;;5005289;28;20886;-59
2023/01/08 05:04:02;;;;;;;4.18;1.70;;;8.90;99.90;;;;;;5004651;28;20516;-59
2023/01/08 05:06:29;;;;;;;4.68;1.75;;;8.70;99.90;;;;;;5003427;28;20072;-60
2023/01/08 05:08:56;;;;;;;4.25;2.10;;;8.90;99.90;;;;;;5005621;28;20061;-59
2023/01/08 05:11:22;;;;;;;5.63;2.22;;;8.80;99.90;;;;;;5005658;28;20436;-59
2023/01/08 05:13:51;;;;;;;3.10;1.67;;;9.80;99.90;;;;;;5004644;28;20505;-59
2023/01/08 05:16:17;;;;;;;2.45;1.27;;;8.90;99.90;;;;;;5004465;28;20132;-59
2023/01/08 05:18:44;;;;;;;3.95;1.95;;;8.50;99.90;;;;;;5004724;28;20126;-59
2023/01/08 05:21:10;;;;;;;5.03;1.70;;;8.90;99.90;;;;;;5011281;28;20063;-59
2023/01/08 05:23:36;;;;;;;4.38;2.10;;;8.90;99.90;;;;;;5007915;28;20286;-59
2023/01/08 05:26:04;;;;;;;3.10;1.45;;;8.80;99.90;;;;;;5003645;28;20085;-60
2023/01/08 05:28:30;;;;;;;3.92;1.73;;;8.60;99.90;;;;;;5003984;28;20105;-59
2023/01/08 05:30:56;;;;;;;5.43;2.10;;;8.50;99.90;;;;;;5004478;28;20042;-61
2023/01/08 05:33:22;;;;;;;5.22;2.10;;;8.40;99.90;;;;;;5004444;28;20046;-59
2023/01/08 05:35:49;;;;;;;4.47;1.58;;;8.40;99.90;;;;;;5005080;28;20112;-59
2023/01/08 05:38:14;;;;;;;5.95;2.13;;;8.30;99.90;;;;;;5003051;28;20493;-60
2023/01/08 05:40:40;;;;;;;5.43;2.30;;;8.80;99.90;;;;;;5005265;28;20184;-60
2023/01/08 05:43:06;;;;;;;3.10;1.70;;;8.60;99.90;;;;;;5004920;28;20451;-60
2023/01/08 05:45:32;;;;;;;4.38;1.70;;;8.30;99.90;;;;;;5005211;28;20038;-59
2023/01/08 05:47:58;;;;;;;4.38;2.03;;;8.50;99.90;;;;;;5003528;28;20044;-60
2023/01/08 05:50:24;;;;;;;5.05;1.70;;;8.60;99.90;;;;;;5005124;28;20042;-59
2023/01/08 05:52:49;;;;;;;6.20;2.25;;;8.70;99.90;;;;;;5003242;28;20593;-60
2023/01/08 05:55:15;;;;;;;3.20;1.67;;;8.70;99.90;;;;;;5004135;28;20073;-59
2023/01/08 05:57:41;;;;;;;2.97;1.52;;;8.20;99.90;;;;;;5004343;28;20038;-59
2023/01/08 06:00:08;;;;;;;7.32;2.38;;;8.60;99.90;;;;;;5004689;28;20113;-60
2023/01/08 06:02:35;;;;;;;7.32;2.20;;;8.50;99.90;;;;;;5003151;28;20092;-60
2023/01/08 06:05:00;;;;;;;3.92;2.20;;;8.60;99.90;;;;;;5003637;28;20065;-60
2023/01/08 06:07:28;;;;;;;4.95;2.00;;;8.50;99.90;;;;;;5004434;28;20575;-60
2023/01/08 06:09:53;;;;;;;3.35;1.30;;;8.60;99.90;;;;;;5003543;28;20145;-59
2023/01/08 06:12:19;;;;;;;4.28;1.75;;;8.50;99.90;;;;;;5003369;28;20034;-59
2023/01/08 06:14:45;;;;;;;3.78;1.80;;;8.30;99.90;;;;;;5004425;28;20049;-59
2023/01/08 06:17:10;;;;;;;4.03;1.70;;;8.20;99.90;;;;;;5003753;28;20516;-59
2023/01/08 06:19:38;;;;;;;5.15;1.90;;;8.50;99.90;;;;;;5004532;28;20057;-60
2023/01/08 06:22:04;;;;;;;4.75;2.17;;;8.50;99.90;;;;;;5014901;28;20045;-60
2023/01/08 06:24:30;;;;;;;4.90;1.98;;;8.20;99.90;;;;;;5003948;28;20049;-61
2023/01/08 06:26:56;;;;;;;5.70;2.00;;;8.30;99.90;;;;;;5004951;28;20131;-59
2023/01/08 06:29:21;;;;;;;4.88;2.35;;;8.10;99.90;;;;;;5003738;28;20117;-59
2023/01/08 06:31:47;;;;;;;3.85;2.15;;;8.40;99.90;;;;;;5003880;28;20038;-59
2023/01/08 06:34:13;;;;;;;4.68;2.10;;;8.50;99.90;;;;;;5003735;28;20488;-60
2023/01/08 06:36:38;;;;;;;5.53;2.60;;;8.50;99.90;;;;;;5004140;28;20051;-60
2023/01/08 06:39:05;;;;;;;5.65;2.72;;;8.50;99.90;;;;;;5005910;28;20053;-59
2023/01/08 06:41:31;;;;;;;4.75;2.75;;;8.30;99.90;;;;;;5008024;28;20117;-59
2023/01/08 06:43:57;;;;;;;7.85;2.90;;;8.40;99.90;;;;;;5007887;28;20518;-60
2023/01/08 06:46:22;;;;;;;5.28;2.38;;;8.40;99.90;;;;;;5007223;28;20034;-60
2023/01/08 06:48:48;;;;;;;5.70;2.83;;;8.50;99.90;;;;;;5007078;28;20049;-60
2023/01/08 06:51:14;;;;;;;7.05;2.33;;;8.40;99.90;;;;;;5007482;28;20038;-59
2023/01/08 06:53:39;;;;;;;5.28;2.47;;;8.30;99.90;;;;;;5007623;28;20052;-60
2023/01/08 06:56:08;;;;;;;7.85;3.10;;;8.00;99.90;;;;;;5007270;28;20034;-59
2023/01/08 06:58:34;;;;;;;6.18;2.58;;;8.20;99.90;;;;;;5007423;28;20053;-60
2023/01/08 07:01:00;;;;;;;5.32;2.33;;;8.10;99.90;;;;;;5007701;28;20038;-59
2023/01/08 07:03:25;;;;;;;10.68;2.53;;;8.30;99.90;;;;;;5006074;28;20077;-60
2023/01/08 07:05:51;;;;;;;4.47;1.92;;;8.10;99.90;;;;;;5005982;28;20057;-60
2023/01/08 07:08:18;;;;;;;6.20;2.17;;;8.30;99.90;;;;;;5024869;28;20480;-59
2023/01/08 07:10:43;;;;;;;6.05;1.52;;;8.30;99.90;;;;;;5026574;28;20053;-60
2023/01/08 07:13:11;;;;;;;5.20;1.98;;;7.90;99.90;;;;;;5025727;28;20495;-59
2023/01/08 07:15:37;;;;;;;4.07;1.38;;;8.20;99.90;;;;;;5025624;28;20053;-60
2023/01/08 07:18:07;;;;;;;3.95;1.38;;;7.90;99.90;;;;;;5026298;28;20189;-59
2023/01/08 07:20:33;;;;;;;4.90;1.98;;;7.90;99.90;;;;;;5021494;28;20033;-60
2023/01/08 07:23:06;;;;;;;5.10;1.75;;;8.10;99.90;;;;;;5016161;28;20559;-59
2023/01/08 07:25:32;;;;;;;7.95;2.08;;;7.90;99.90;;;;;;5006953;28;20180;-60
2023/01/08 07:27:59;;;;;;;5.35;1.60;;;8.10;99.90;;;;;;5007193;28;20037;-60
2023/01/08 07:30:25;;;;;;;5.00;1.50;;;8.00;99.90;;;;;;5006771;28;20136;-59
2023/01/08 07:32:51;;;;;;;3.90;1.50;;;7.80;99.90;;;;;;5006239;28;20137;-60
2023/01/08 07:35:17;;;;;;;5.03;1.60;;;8.10;99.90;;;;;;5006580;28;20121;-59
2023/01/08 07:37:43;;;;;;;7.22;1.90;;;7.80;99.90;;;;;;5006935;28;20555;-60
2023/01/08 07:40:10;;;;;;;4.80;1.52;;;8.00;99.90;;;;;;5006846;28;20757;-60
2023/01/08 07:42:37;;;;;;;3.58;1.30;;;8.00;99.90;;;;;;5006011;28;20058;-59
2023/01/08 07:45:03;;;;;;;7.90;1.83;;;7.80;99.90;;;;;;5007148;28;20046;-59
2023/01/08 07:47:29;;;;;;;6.18;2.22;;;8.10;99.90;;;;;;4988290;28;20116;-59
2023/01/08 07:49:55;;;;;;;7.20;1.95;;;7.70;99.90;;;;;;5006760;28;20310;-60
2023/01/08 07:52:20;;;;;;;5.03;1.20;;;7.60;99.90;;;;;;5006060;28;20045;-59
2023/01/08 07:54:46;;;;;;;6.15;1.80;;;7.80;99.90;;;;;;5006427;28;20045;-60
2023/01/08 07:57:12;;;;;;;4.05;1.27;;;7.60;99.90;;;;;;5006537;28;20038;-59
2023/01/08 07:59:37;;;;;;;7.43;1.90;;;8.00;99.90;;;;;;5005700;28;20050;-60
2023/01/08 08:02:03;;;;;;;6.75;1.13;;;8.00;99.90;;;;;;5006140;28;20729;-59
2023/01/08 08:04:29;;;;;;;6.65;1.90;;;8.10;99.90;;;;;;5006512;28;20088;-60
2023/01/08 08:06:55;;;;;;;6.32;1.98;;;7.60;99.90;;;;;;5005136;28;20077;-59
2023/01/08 08:09:20;;;;;;;6.80;1.80;;;7.90;99.90;;;;;;5005947;28;20060;-59
2023/01/08 08:11:46;;;;;;;4.07;1.70;;;7.70;99.90;;;;;;5006085;28;20488;-60
2023/01/08 08:14:12;;;;;;;7.95;2.03;;;7.90;99.90;;;;;;5006384;28;20711;-59
2023/01/08 08:16:37;;;;;;;6.82;2.30;;;7.70;99.90;;;;;;5004726;28;20053;-60
2023/01/08 08:19:03;;;;;;;6.00;2.63;;;8.00;99.90;;;;;;5006451;28;20041;-58
2023/01/08 08:21:29;;;;;;;3.65;2.13;;;8.10;99.90;;;;;;5014266;28;20100;-60
2023/01/08 08:23:55;;;;;;;5.82;2.50;;;7.70;99.90;;;;;;5021094;28;20049;-60
2023/01/08 08:26:21;;;;;;;6.53;2.65;;;7.70;99.90;;;;;;5003831;28;20046;-59
2023/01/08 08:28:47;;;;;;;6.28;2.67;;;7.80;99.90;;;;;;5004101;28;20061;-59
2023/01/08 08:31:13;;;;;;;5.63;2.85;;;7.80;99.90;;;;;;5016527;28;20388;-60
2023/01/08 08:33:38;;;;;;;7.03;3.00;;;7.90;99.90;;;;;;5023188;28;20128;-59
2023/01/08 08:36:04;;;;;;;6.90;3.00;;;7.90;99.90;;;;;;5025531;28;20044;-60
2023/01/08 08:38:30;;;;;;;7.18;2.58;;;7.60;99.90;;;;;;5025394;28;20056;-58
2023/01/08 08:40:56;;;;;;;6.70;3.03;;;7.60;99.90;;;;;;5025284;28;20500;-59
2023/01/08 08:43:21;;;;;;;10.35;3.67;;;7.80;99.90;;;;;;5024859;28;20049;-60
2023/01/08 08:45:47;;;;;;;8.40;3.28;;;7.80;99.90;;;;;;5025578;28;20150;-60
2023/01/08 08:48:14;;;;;;;8.82;3.28;;;7.60;99.90;;;;;;5024432;28;20142;-59
2023/01/08 08:50:40;;;;;;;6.55;3.40;;;7.90;99.90;;;;;;5024055;28;20042;-60
2023/01/08 08:53:06;;;;;;;7.28;2.55;;;8.00;99.90;;;;;;5007407;28;20068;-60
2023/01/08 08:55:32;;;;;;;12.30;2.80;;;7.70;99.90;;;;;;5004799;28;20042;-59
2023/01/08 08:58:09;;;;;;;6.25;2.92;;;7.80;99.90;;;;;;5004966;28;20412;-59
2023/01/08 09:00:40;;;;;;;7.88;3.28;;;8.00;99.90;;;;;;5004888;28;20135;-59
2023/01/08 09:03:09;;;;;;;4.55;1.50;;;7.80;99.90;;;;;;5004176;28;20046;-60
2023/01/08 09:05:35;;;;;;;7.22;2.10;;;8.00;99.90;;;;;;5012301;28;20045;-58
2023/01/08 09:08:01;;;;;;;6.38;2.13;;;8.10;99.90;;;;;;5011857;28;20415;-59
2023/01/08 09:10:27;;;;;;;4.55;1.80;;;7.80;99.90;;;;;;5012803;28;20045;-60
2023/01/08 09:12:53;;;;;;;4.43;1.55;;;8.20;99.90;;;;;;5009360;28;20733;-60
2023/01/08 09:15:19;;;;;;;5.20;1.42;;;8.20;99.90;;;;;;5003901;28;20176;-60
2023/01/08 09:17:45;;;;;;;6.93;2.15;;;8.30;99.90;;;;;;5004200;28;20077;-60
2023/01/08 09:20:11;;;;;;;5.97;1.92;;;8.10;99.90;;;;;;5012505;28;20079;-58
2023/01/08 09:22:37;;;;;;;5.80;1.77;;;8.20;99.90;;;;;;5021344;28;20080;-60
2023/01/08 09:25:03;;;;;;;2.63;1.20;;;8.20;99.90;;;;;;5011892;28;20073;-59
2023/01/08 09:27:28;;;;;;;8.13;2.10;;;8.20;99.90;;;;;;5014295;28;20033;-60
2023/01/08 09:29:54;;;;;;;4.22;1.30;;;8.30;99.90;;;;;;5017328;28;20099;-59
2023/01/08 09:32:19;;;;;;;4.68;1.60;;;8.40;99.90;;;;;;5015267;28;20034;-60
2023/01/08 09:34:45;;;;;;;5.38;1.60;;;8.60;99.90;;;;;;5015968;28;20056;-60
2023/01/08 09:37:11;;;;;;;5.32;1.60;;;8.50;99.90;;;;;;5016448;28;20131;-60
2023/01/08 09:39:36;;;;;;;4.95;1.50;;;8.60;99.90;;;;;;5015411;28;20033;-60
2023/01/08 09:42:04;;;;;;;5.65;1.40;;;8.70;99.90;;;;;;5017632;28;20545;-59
2023/01/08 09:44:35;;;;;;;3.63;1.15;;;8.80;99.90;;;;;;5017026;28;20145;-59
2023/01/08 09:47:01;;;;;;;4.53;1.20;;;9.10;99.90;;;;;;5016558;28;20037;-59
2023/01/08 09:49:38;;;;;;;9.00;1.50;;;9.30;99.90;;;;;;5014720;28;20565;-60
2023/01/08 09:52:04;;;;;;;2.25;0.90;;;9.70;99.90;;;;;;5020950;28;20042;-60
2023/01/08 09:54:30;;;;;;;3.30;1.35;;;9.70;99.90;;;;;;5015117;28;20044;-60
2023/01/08 09:56:58;;;;;;;3.30;0.98;;;10.00;99.90;;;;;;5013010;28;20092;-60
2023/01/08 09:59:25;;;;;;;4.47;1.33;;;9.90;99.90;;;;;;5015914;28;20109;-60
2023/01/08 10:01:51;;;;;;;6.70;1.92;;;9.70;99.90;;;;;;5013651;28;20049;-60
2023/01/08 10:04:27;;;;;;;3.63;1.30;;;10.20;99.90;;;;;;5013479;28;20044;-60
2023/01/08 10:07:05;;;;;;;6.90;1.52;;;10.20;99.90;;;;;;5016361;28;20057;-60
2023/01/08 10:09:32;;;;;;;2.60;0.93;;;10.10;99.90;;;;;;5008949;28;20104;-60
2023/01/08 10:12:03;;;;;;;3.20;0.93;;;10.50;99.90;;;;;;5006755;28;20388;-60
2023/01/08 10:14:33;;;;;;;4.25;1.13;;;10.00;99.90;;;;;;5008214;28;20053;-60
2023/01/08 10:17:03;;;;;;;4.20;1.20;;;10.20;99.90;;;;;;5007471;28;20358;-60
2023/01/08 10:19:29;;;;;;;5.22;1.50;;;10.60;99.90;;;;;;5008180;28;20475;-60
2023/01/08 10:21:56;;;;;;;6.05;1.33;;;10.30;99.90;;;;;;5019145;28;20056;-60
2023/01/08 10:24:38;;;;;;;5.28;1.52;;;10.40;99.90;;;;;;5005886;28;20045;-61
2023/01/08 10:27:11;;;;;;;5.03;1.00;;;10.50;99.90;;;;;;5006719;28;20208;-60
2023/01/08 10:29:38;;;;;;;2.53;1.10;;;10.30;99.90;;;;;;5007833;28;20570;-58
2023/01/08 10:32:28;;;;;;;5.43;1.15;;;10.10;99.90;;;;;;5007797;28;20061;-57
2023/01/08 10:35:02;;;;;;;4.07;1.10;;;10.50;99.90;;;;;;5007526;28;20050;-59
2023/01/08 10:37:29;;;;;;;9.05;1.50;;;10.90;99.90;;;;;;5007818;28;20050;-59
2023/01/08 10:40:03;;;;;;;5.88;1.58;;;10.60;99.90;;;;;;5008199;28;20049;-60
2023/01/08 10:42:34;;;;;;;5.38;1.20;;;10.60;99.90;;;;;;5007614;28;20103;-60
2023/01/08 10:45:03;;;;;;;6.82;1.25;;;10.40;99.90;;;;;;5008161;28;20502;-60
2023/01/08 10:47:32;;;;;;;3.13;1.05;;;10.30;99.90;;;;;;5007529;28;20046;-59
2023/01/08 10:49:59;;;;;;;6.03;1.35;;;10.60;99.90;;;;;;5007926;28;20481;-60
2023/01/08 10:52:31;;;;;;;3.63;1.02;;;10.50;99.90;;;;;;5007671;28;20220;-60
2023/01/08 10:55:28;;;;;;;5.95;1.23;;;10.60;99.90;;;;;;5026481;28;20279;-59
2023/01/08 10:57:59;;;;;;;5.03;0.93;;;10.40;99.90;;;;;;5026503;28;20045;-60
2023/01/08 11:00:27;;;;;;;7.93;1.95;;;10.20;99.90;;;;;;5026074;28;20107;-60
2023/01/08 11:02:54;;;;;;;6.15;1.48;;;10.60;99.90;;;;;;5026150;28;20041;-60
2023/01/08 11:05:28;;;;;;;5.03;1.13;;;10.30;99.90;;;;;;5026911;28;20049;-60
2023/01/08 11:07:58;;;;;;;5.83;1.80;;;10.20;99.90;;;;;;5025946;28;20095;-60
2023/01/08 11:10:26;;;;;;;6.50;1.42;;;10.50;99.90;;;;;;5026942;28;20289;-60
2023/01/08 11:12:58;;;;;;;6.40;1.30;;;10.70;99.90;;;;;;5026458;28;20412;-60
2023/01/08 11:15:31;;;;;;;9.32;1.83;;;10.50;99.90;;;;;;5025841;28;20065;-60
2023/01/08 11:18:16;;;;;;;6.93;1.52;;;10.60;99.90;;;;;;5025549;28;20124;-59
2023/01/08 11:20:42;;;;;;;8.55;2.05;;;10.70;99.90;;;;;;5020010;28;20030;-59
2023/01/08 11:23:20;;;;;;;6.97;1.45;;;10.80;99.90;;;;;;5022096;28;20037;-60
2023/01/08 11:25:52;;;;;;;5.40;1.35;;;10.70;99.90;;;;;;5026465;28;20311;-59
2023/01/08 11:28:27;;;;;;;4.30;1.30;;;10.50;99.90;;;;;;5024428;28;20443;-59
2023/01/08 11:31:13;;;;;;;7.00;1.33;;;10.60;99.90;;;;;;5026701;28;20091;-60
2023/01/08 11:33:41;;;;;;;9.05;1.88;;;10.50;99.90;;;;;;5026018;28;20456;-60
2023/01/08 11:36:17;;;;;;;8.55;2.05;;;10.80;99.90;;;;;;5026447;28;20499;-60
2023/01/08 11:38:43;;;;;;;4.63;1.40;;;11.10;99.90;;;;;;5026299;28;20050;-60
2023/01/08 11:41:34;;;;;;;4.95;1.15;;;10.60;99.90;;;;;;5025912;28;20050;-60
2023/01/08 11:44:18;;;;;;;7.22;1.50;;;11.00;99.90;;;;;;5026106;28;20042;-60
2023/01/08 11:47:13;;;;;;;5.65;1.27;;;11.20;99.90;;;;;;5025664;28;20116;-60
2023/01/08 11:50:09;;;;;;;3.97;1.02;;;11.00;99.90;;;;;;5025089;28;20049;-60
2023/01/08 11:53:05;;;;;;;6.68;1.50;;;10.50;99.90;;;;;;5025771;28;20132;-59
2023/01/08 11:56:17;;;;;;;7.22;1.33;;;10.60;99.90;;;;;;5014066;28;20089;-59
2023/01/08 11:58:50;;;;;;;6.35;1.48;;;10.50;99.90;;;;;;5025718;28;20046;-59
2023/01/08 12:01:33;;;;;;;6.13;1.27;;;10.50;99.90;;;;;;5024893;28;21516;-60
2023/01/08 12:04:08;;;;;;;4.60;1.10;;;10.40;99.90;;;;;;5025983;28;20048;-60
2023/01/08 12:07:21;;;;;;;7.95;1.70;;;10.30;99.90;;;;;;5024785;28;20045;-60
2023/01/08 12:10:01;;;;;;;11.10;1.80;;;10.20;99.90;;;;;;4980530;28;20085;-61
2023/01/08 12:12:38;;;;;;;9.45;1.92;;;10.10;99.90;;;;;;5023869;28;20057;-60
2023/01/08 12:15:09;;;;;;;8.90;1.98;;;10.10;99.90;;;;;;5024810;28;20041;-60
2023/01/08 12:18:10;;;;;;;8.18;1.48;;;10.10;99.90;;;;;;5024696;28;20045;-60
2023/01/08 12:20:49;;;;;;;4.07;1.17;;;9.80;99.90;;;;;;5019419;28;20362;-58
2023/01/08 12:23:24;;;;;;;10.20;2.28;;;9.80;99.90;;;;;;5018579;28;20058;-60
2023/01/08 12:25:58;;;;;;;6.82;1.63;;;9.70;99.90;;;;;;5024955;28;20118;-60
2023/01/08 12:28:51;;;;;;;10.30;2.80;;;9.70;99.90;;;;;;5025477;28;20495;-60
2023/01/08 12:31:51;;;;;;;5.32;1.33;;;9.70;99.90;;;;;;5024354;28;20447;-59
2023/01/08 12:34:26;;;;;;;6.82;1.33;;;9.60;99.90;;;;;;5022656;28;20053;-60
2023/01/08 12:37:02;;;;;;;4.93;1.27;;;9.50;99.90;;;;;;5025330;28;20148;-60
2023/01/08 12:39:34;;;;;;;8.50;2.17;;;9.60;99.90;;;;;;5024943;28;20037;-61
2023/01/08 12:42:12;;;;;;;8.75;2.33;;;9.70;99.90;;;;;;5025053;28;20751;-60
2023/01/08 12:44:38;;;;;;;12.15;2.40;;;9.90;99.90;;;;;;5024517;28;20048;-60
2023/01/08 12:47:06;;;;;;;7.65;1.60;;;10.00;99.90;;;;;;5024093;28;20045;-59
2023/01/08 12:49:51;;;;;;;6.00;1.30;;;9.80;99.90;;;;;;5025785;28;20475;-60
2023/01/08 12:52:27;;;;;;;6.10;1.80;;;9.60;99.90;;;;;;5025415;28;20046;-59
2023/01/08 12:55:02;;;;;;;7.75;1.65;;;9.80;99.90;;;;;;5025357;28;20068;-59
2023/01/08 12:57:36;;;;;;;7.90;1.65;;;9.60;99.90;;;;;;5023996;28;20187;-60
2023/01/08 13:00:47;;;;;;;9.35;2.08;;;9.70;99.90;;;;;;5024362;28;20052;-61
2023/01/08 13:03:24;;;;;;;8.15;2.00;;;9.90;99.90;;;;;;5023688;28;20196;-63
2023/01/08 13:05:49;;;;;;;6.97;1.25;;;9.80;99.90;;;;;;5024921;28;20197;-64
2023/01/08 13:08:35;;;;;;;10.82;1.90;;;9.60;99.90;;;;;;5024886;28;20053;-61
2023/01/08 13:11:02;;;;;;;6.20;1.77;;;9.40;99.90;;;;;;5024084;28;20045;-62
2023/01/08 13:13:34;;;;;;;11.25;2.22;;;9.30;99.90;;;;;;5023678;28;20092;-63